createdAt,value
2017-03-15T00:00:54.755Z,8.48
2017-03-15T00:02:03.715Z,8.4
2017-03-15T00:03:13.226Z,8.43
2017-03-15T00:04:22.481Z,8.38
2017-03-15T00:05:31.755Z,8.43
2017-03-15T00:06:40.414Z,8.43
2017-03-15T00:07:49.672Z,8.38
2017-03-15T00:08:58.935Z,8.29
2017-03-15T00:10:08.186Z,8.4
2017-03-15T00:11:17.745Z,8.28
2017-03-15T00:12:26.998Z,8.19
2017-03-15T00:13:36.868Z,8.22
2017-03-15T00:14:45.826Z,8.18
2017-03-15T00:15:55.088Z,8.05
2017-03-15T00:17:04.054Z,8.04
2017-03-15T00:18:13.912Z,8.04
2017-03-15T00:19:23.175Z,8.05
2017-03-15T00:20:33.284Z,8.07
2017-03-15T00:21:42.241Z,8.08
2017-03-15T00:22:51.798Z,8.15
2017-03-15T00:24:01.057Z,8.23
2017-03-15T00:25:10.319Z,8.28
2017-03-15T00:26:19.578Z,8.22
2017-03-15T00:27:29.139Z,8.26
2017-03-15T00:28:38.097Z,8.3
2017-03-15T00:29:47.665Z,8.22
2017-03-15T00:30:57.539Z,8.26
2017-03-15T00:32:06.744Z,8.19
2017-03-15T00:33:15.704Z,8.29
2017-03-15T00:34:24.672Z,8.38
2017-03-15T00:35:34.530Z,8.25
2017-03-15T00:36:43.490Z,8.28
2017-03-15T00:37:52.753Z,8.29
2017-03-15T00:39:01.724Z,8.25
2017-03-15T00:40:10.984Z,8.26
2017-03-15T00:41:20.252Z,8.25
2017-03-15T00:42:29.513Z,8.15
2017-03-15T00:43:38.771Z,8.2
2017-03-15T00:44:48.341Z,8.23
2017-03-15T00:45:57.600Z,8.12
2017-03-15T00:47:06.568Z,8.19
2017-03-15T00:48:15.534Z,8.12
2017-03-15T00:49:25.099Z,8.12
2017-03-15T00:50:34.988Z,8.11
2017-03-15T00:51:44.261Z,8.07
2017-03-15T00:52:53.812Z,8.16
2017-03-15T00:54:02.782Z,8.12
2017-03-15T00:55:11.739Z,8.23
2017-03-15T00:56:20.699Z,8.05
2017-03-15T00:57:29.662Z,8.02
2017-03-15T00:58:38.627Z,7.97
2017-03-15T00:59:47.294Z,8.05
2017-03-15T01:00:57.160Z,7.97
2017-03-15T01:02:06.112Z,7.97
2017-03-15T01:03:15.376Z,7.95
2017-03-15T01:04:24.944Z,7.95
2017-03-15T01:05:33.909Z,8.02
2017-03-15T01:06:43.728Z,8.08
2017-03-15T01:07:52.989Z,8.15
2017-03-15T01:09:02.247Z,8.25
2017-03-15T01:10:11.208Z,8.44
2017-03-15T01:11:20.469Z,8.47
2017-03-15T01:12:30.036Z,8.56
2017-03-15T01:13:39.009Z,8.53
2017-03-15T01:14:47.988Z,8.59
2017-03-15T01:15:57.251Z,8.58
2017-03-15T01:17:05.927Z,8.61
2017-03-15T01:18:15.449Z,8.5
2017-03-15T01:19:25.026Z,8.56
2017-03-15T01:20:34.887Z,8.52
2017-03-15T01:21:44.452Z,8.55
2017-03-15T01:22:54.019Z,8.53
2017-03-15T01:24:02.980Z,8.47
2017-03-15T01:25:12.243Z,8.65
2017-03-15T01:26:21.502Z,8.65
2017-03-15T01:27:31.074Z,8.71
2017-03-15T01:28:40.637Z,8.66
2017-03-15T01:29:49.595Z,8.7
2017-03-15T01:30:59.459Z,8.63
2017-03-15T01:32:09.020Z,8.55
2017-03-15T01:33:18.575Z,8.68
2017-03-15T01:34:27.832Z,8.61
2017-03-15T01:35:37.345Z,8.71
2017-03-15T01:36:46.899Z,8.66
2017-03-15T01:37:56.462Z,8.74
2017-03-15T01:39:05.723Z,8.76
2017-03-15T01:40:15.283Z,8.8
2017-03-15T01:41:25.153Z,8.66
2017-03-15T01:42:35.009Z,8.8
2017-03-15T01:43:43.668Z,8.84
2017-03-15T01:44:53.230Z,8.83
2017-03-15T01:46:02.493Z,8.91
2017-03-15T01:47:12.315Z,8.91
2017-03-15T01:48:21.588Z,9.01
2017-03-15T01:49:31.141Z,8.99
2017-03-15T01:50:41.009Z,8.95
2017-03-15T01:51:50.612Z,8.96
2017-03-15T01:52:59.584Z,9.04
2017-03-15T01:54:08.546Z,9.02
2017-03-15T01:55:18.124Z,9.04
2017-03-15T01:56:27.396Z,8.92
2017-03-15T01:57:36.955Z,9.05
2017-03-15T01:58:46.487Z,8.98
2017-03-15T01:59:56.653Z,8.94
2017-03-15T02:01:06.218Z,8.91
2017-03-15T02:02:16.380Z,8.94
2017-03-15T02:03:25.639Z,8.92
2017-03-15T02:04:35.201Z,8.96
2017-03-15T02:05:44.466Z,8.98
2017-03-15T02:06:53.126Z,8.92
2017-03-15T02:08:02.988Z,9.1
2017-03-15T02:09:11.948Z,8.89
2017-03-15T02:10:21.211Z,9.04
2017-03-15T02:11:31.081Z,9.04
2017-03-15T02:12:40.338Z,9.04
2017-03-15T02:13:49.299Z,9.1
2017-03-15T02:14:59.159Z,8.95
2017-03-15T02:16:08.371Z,9.05
2017-03-15T02:17:17.642Z,9.01
2017-03-15T02:18:26.915Z,8.89
2017-03-15T02:19:36.174Z,8.98
2017-03-15T02:20:45.737Z,8.98
2017-03-15T02:21:55.603Z,8.95
2017-03-15T02:23:04.560Z,8.92
2017-03-15T02:24:14.428Z,8.91
2017-03-15T02:25:23.990Z,8.84
2017-03-15T02:26:33.854Z,8.87
2017-03-15T02:27:43.662Z,8.91
2017-03-15T02:28:53.226Z,8.95
2017-03-15T02:30:03.089Z,8.91
2017-03-15T02:31:12.385Z,8.87
2017-03-15T02:32:21.363Z,8.92
2017-03-15T02:33:30.021Z,8.92
2017-03-15T02:34:38.993Z,8.92
2017-03-15T02:35:48.012Z,8.92
2017-03-15T02:36:57.874Z,8.94
2017-03-15T02:38:06.834Z,8.92
2017-03-15T02:39:16.650Z,8.92
2017-03-15T02:40:25.909Z,8.95
2017-03-15T02:41:34.888Z,9.01
2017-03-15T02:42:44.766Z,9.05
2017-03-15T02:43:54.321Z,8.99
2017-03-15T02:45:02.980Z,9.04
2017-03-15T02:46:12.542Z,8.95
2017-03-15T02:47:22.110Z,8.87
2017-03-15T02:48:31.082Z,8.92
2017-03-15T02:49:40.066Z,8.98
2017-03-15T02:50:49.028Z,9.01
2017-03-15T02:51:58.297Z,8.99
2017-03-15T02:53:07.560Z,9.01
2017-03-15T02:54:16.584Z,9.05
2017-03-15T02:55:26.155Z,9.08
2017-03-15T02:56:36.285Z,8.98
2017-03-15T02:57:45.253Z,8.98
2017-03-15T02:58:54.528Z,9.02
2017-03-15T03:00:04.090Z,9.04
2017-03-15T03:01:13.354Z,8.99
2017-03-15T03:02:23.242Z,9.05
2017-03-15T03:03:33.115Z,8.99
2017-03-15T03:04:42.075Z,8.99
2017-03-15T03:05:51.697Z,8.92
2017-03-15T03:07:00.980Z,8.87
2017-03-15T03:08:09.944Z,8.96
2017-03-15T03:09:18.922Z,8.92
2017-03-15T03:10:28.218Z,8.92
2017-03-15T03:11:37.524Z,8.83
2017-03-15T03:12:47.138Z,8.87
2017-03-15T03:13:56.649Z,8.89
2017-03-15T03:15:05.632Z,8.89
2017-03-15T03:16:14.599Z,8.86
2017-03-15T03:17:23.888Z,8.89
2017-03-15T03:18:33.779Z,8.86
2017-03-15T03:19:42.737Z,8.89
2017-03-15T03:20:52.008Z,8.87
2017-03-15T03:22:01.899Z,8.89
2017-03-15T03:23:10.856Z,8.91
2017-03-15T03:24:20.115Z,8.91
2017-03-15T03:25:29.637Z,8.84
2017-03-15T03:26:38.909Z,8.92
2017-03-15T03:27:47.877Z,8.92
2017-03-15T03:28:57.464Z,8.95
2017-03-15T03:30:06.458Z,8.92
2017-03-15T03:31:16.023Z,8.98
2017-03-15T03:32:25.301Z,8.98
2017-03-15T03:33:34.867Z,8.95
2017-03-15T03:34:43.849Z,8.92
2017-03-15T03:35:53.119Z,8.91
2017-03-15T03:37:02.082Z,9.01
2017-03-15T03:38:11.648Z,8.96
2017-03-15T03:39:21.219Z,9.01
2017-03-15T03:40:30.783Z,9.05
2017-03-15T03:41:40.354Z,8.98
2017-03-15T03:42:50.504Z,8.94
2017-03-15T03:43:59.779Z,8.84
2017-03-15T03:45:09.060Z,8.96
2017-03-15T03:46:18.036Z,8.99
2017-03-15T03:47:27.316Z,8.91
2017-03-15T03:48:36.591Z,8.89
2017-03-15T03:49:46.464Z,8.91
2017-03-15T03:50:55.732Z,8.95
2017-03-15T03:52:04.724Z,8.92
2017-03-15T03:53:13.708Z,8.94
2017-03-15T03:54:23.769Z,8.89
2017-03-15T03:55:33.670Z,8.87
2017-03-15T03:56:42.966Z,8.87
2017-03-15T03:57:52.229Z,8.92
2017-03-15T03:59:02.097Z,8.98
2017-03-15T04:00:11.070Z,8.99
2017-03-15T04:01:20.639Z,8.95
2017-03-15T04:02:30.522Z,8.87
2017-03-15T04:03:39.782Z,8.95
2017-03-15T04:04:49.660Z,8.96
2017-03-15T04:05:59.255Z,8.89
2017-03-15T04:07:08.517Z,9.01
2017-03-15T04:08:17.479Z,9.01
2017-03-15T04:09:27.363Z,8.92
2017-03-15T04:10:36.650Z,8.92
2017-03-15T04:11:46.161Z,8.91
2017-03-15T04:12:55.429Z,8.94
2017-03-15T04:14:04.684Z,8.94
2017-03-15T04:15:13.736Z,8.92
2017-03-15T04:16:23.646Z,8.91
2017-03-15T04:17:33.508Z,8.91
2017-03-15T04:18:43.093Z,8.86
2017-03-15T04:19:52.666Z,8.94
2017-03-15T04:21:02.226Z,8.92
2017-03-15T04:22:11.797Z,8.94
2017-03-15T04:23:21.777Z,8.87
2017-03-15T04:24:31.679Z,8.94
2017-03-15T04:25:40.672Z,8.89
2017-03-15T04:26:49.666Z,8.92
2017-03-15T04:27:58.923Z,8.94
2017-03-15T04:29:08.484Z,8.92
2017-03-15T04:30:18.058Z,8.94
2017-03-15T04:31:27.619Z,9.11
2017-03-15T04:32:36.899Z,8.84
2017-03-15T04:33:46.173Z,9.05
2017-03-15T04:34:54.831Z,9.05
2017-03-15T04:36:03.788Z,8.92
2017-03-15T04:37:13.646Z,8.89
2017-03-15T04:38:22.945Z,9.04
2017-03-15T04:39:32.230Z,8.89
2017-03-15T04:40:41.471Z,8.95
2017-03-15T04:41:51.036Z,8.94
2017-03-15T04:43:00.012Z,8.98
2017-03-15T04:44:09.588Z,8.92
2017-03-15T04:45:18.598Z,8.98
2017-03-15T04:46:27.555Z,8.99
2017-03-15T04:47:36.857Z,8.92
2017-03-15T04:48:46.428Z,8.94
2017-03-15T04:49:55.717Z,8.91
2017-03-15T04:51:05.299Z,8.89
2017-03-15T04:52:14.886Z,8.86
2017-03-15T04:53:23.864Z,8.91
2017-03-15T04:54:33.728Z,8.87
2017-03-15T04:55:43.610Z,8.92
2017-03-15T04:56:53.470Z,8.86
2017-03-15T04:58:03.287Z,8.86
2017-03-15T04:59:12.858Z,8.87
2017-03-15T05:00:22.422Z,8.89
2017-03-15T05:01:31.080Z,8.92
2017-03-15T05:02:40.951Z,8.86
2017-03-15T05:03:50.516Z,8.95
2017-03-15T05:05:00.382Z,8.86
2017-03-15T05:06:09.347Z,8.83
2017-03-15T05:07:18.611Z,8.86
2017-03-15T05:08:27.880Z,8.76
2017-03-15T05:09:37.695Z,8.81
2017-03-15T05:10:47.262Z,8.87
2017-03-15T05:11:56.828Z,8.87
2017-03-15T05:13:06.092Z,8.83
2017-03-15T05:14:15.660Z,8.87
2017-03-15T05:15:25.561Z,8.87
2017-03-15T05:16:34.523Z,8.86
2017-03-15T05:17:44.082Z,8.89
2017-03-15T05:18:53.650Z,8.89
2017-03-15T05:20:03.506Z,8.89
2017-03-15T05:21:13.014Z,8.89
2017-03-15T05:22:21.976Z,9.01
2017-03-15T05:23:31.243Z,8.89
2017-03-15T05:24:40.804Z,8.95
2017-03-15T05:25:50.680Z,8.91
2017-03-15T05:26:59.640Z,8.83
2017-03-15T05:28:09.506Z,8.96
2017-03-15T05:29:18.769Z,8.92
2017-03-15T05:30:28.641Z,8.91
2017-03-15T05:31:38.205Z,8.86
2017-03-15T05:32:47.770Z,8.84
2017-03-15T05:33:57.328Z,8.83
2017-03-15T05:35:06.588Z,8.73
2017-03-15T05:36:15.546Z,8.74
2017-03-15T05:37:25.106Z,8.79
2017-03-15T05:38:34.927Z,8.79
2017-03-15T05:39:44.493Z,8.74
2017-03-15T05:40:54.085Z,8.74
2017-03-15T05:42:03.640Z,8.74
2017-03-15T05:43:12.895Z,8.77
2017-03-15T05:44:22.158Z,8.71
2017-03-15T05:45:31.720Z,8.81
2017-03-15T05:46:41.281Z,8.77
2017-03-15T05:47:50.547Z,8.74
2017-03-15T05:49:00.406Z,8.74
2017-03-15T05:50:09.073Z,8.77
2017-03-15T05:51:18.633Z,8.71
2017-03-15T05:52:28.501Z,8.73
2017-03-15T05:53:38.062Z,8.74
2017-03-15T05:54:47.314Z,8.71
2017-03-15T05:55:56.829Z,8.74
2017-03-15T05:57:06.390Z,8.71
2017-03-15T05:58:15.950Z,8.77
2017-03-15T05:59:25.832Z,8.77
2017-03-15T06:00:35.110Z,8.73
2017-03-15T06:01:43.777Z,8.73
2017-03-15T06:02:52.755Z,8.77
2017-03-15T06:04:02.387Z,8.77
2017-03-15T06:05:11.647Z,8.74
2017-03-15T06:06:21.521Z,8.74
2017-03-15T06:07:30.784Z,8.77
2017-03-15T06:08:40.041Z,8.91
2017-03-15T06:09:49.608Z,8.89
2017-03-15T06:10:59.177Z,8.86
2017-03-15T06:12:08.437Z,8.8
2017-03-15T06:13:17.996Z,8.84
2017-03-15T06:14:27.263Z,8.96
2017-03-15T06:15:36.823Z,8.95
2017-03-15T06:16:46.378Z,8.91
2017-03-15T06:17:55.332Z,8.84
2017-03-15T06:19:04.294Z,8.79
2017-03-15T06:20:13.852Z,8.79
2017-03-15T06:21:23.126Z,8.7
2017-03-15T06:22:32.690Z,8.73
2017-03-15T06:23:42.254Z,8.79
2017-03-15T06:24:51.731Z,8.8
2017-03-15T06:26:01.597Z,8.8
2017-03-15T06:27:10.556Z,8.77
2017-03-15T06:28:20.126Z,8.73
2017-03-15T06:29:28.791Z,8.87
2017-03-15T06:30:38.052Z,8.87
2017-03-15T06:31:47.607Z,8.94
2017-03-15T06:32:56.872Z,8.89
2017-03-15T06:34:06.743Z,8.83
2017-03-15T06:35:16.911Z,8.92
2017-03-15T06:36:26.428Z,8.89
2017-03-15T06:37:35.986Z,8.98
2017-03-15T06:38:44.945Z,9.04
2017-03-15T06:39:54.505Z,9.1
2017-03-15T06:41:03.763Z,9.05
2017-03-15T06:42:13.318Z,8.96
2017-03-15T06:43:22.880Z,8.99
2017-03-15T06:44:31.840Z,9.05
2017-03-15T06:45:41.096Z,9.15
2017-03-15T06:46:50.056Z,9.11
2017-03-15T06:47:59.316Z,8.99
2017-03-15T06:49:07.977Z,9.1
2017-03-15T06:50:16.942Z,9.08
2017-03-15T06:51:26.505Z,9.13
2017-03-15T06:52:36.078Z,9.1
2017-03-15T06:53:46.191Z,9.05
2017-03-15T06:54:55.146Z,9.08
2017-03-15T06:56:04.713Z,9.04
2017-03-15T06:57:14.274Z,9.05
2017-03-15T06:58:24.136Z,9.17
2017-03-15T06:59:33.352Z,9.05
2017-03-15T07:00:42.317Z,9.05
2017-03-15T07:01:51.879Z,9.11
2017-03-15T07:03:01.147Z,9.15
2017-03-15T07:04:10.405Z,9.1
2017-03-15T07:05:19.663Z,9.2
2017-03-15T07:06:29.248Z,9.15
2017-03-15T07:07:38.816Z,9.2
2017-03-15T07:08:48.082Z,9.17
2017-03-15T07:09:57.943Z,9.2
2017-03-15T07:11:07.502Z,9.17
2017-03-15T07:12:16.760Z,9.18
2017-03-15T07:13:26.021Z,9.23
2017-03-15T07:14:35.877Z,9.21
2017-03-15T07:15:44.841Z,9.21
2017-03-15T07:16:54.704Z,9.17
2017-03-15T07:18:03.975Z,9.2
2017-03-15T07:19:13.843Z,9.26
2017-03-15T07:20:23.401Z,9.29
2017-03-15T07:21:32.666Z,9.39
2017-03-15T07:22:42.478Z,9.38
2017-03-15T07:23:51.444Z,9.42
2017-03-15T07:25:00.402Z,9.46
2017-03-15T07:26:09.666Z,9.53
2017-03-15T07:27:19.227Z,9.64
2017-03-15T07:28:28.498Z,9.69
2017-03-15T07:29:38.059Z,9.83
2017-03-15T07:30:47.324Z,10.01
2017-03-15T07:31:56.292Z,10.04
2017-03-15T07:33:05.853Z,10.18
2017-03-15T07:34:14.765Z,10.17
2017-03-15T07:35:24.330Z,10.3
2017-03-15T07:36:33.602Z,10.27
2017-03-15T07:37:42.865Z,10.27
2017-03-15T07:38:51.825Z,10.3
2017-03-15T07:40:00.933Z,10.33
2017-03-15T07:41:09.963Z,10.38
2017-03-15T07:42:19.536Z,10.34
2017-03-15T07:43:29.203Z,10.26
2017-03-15T07:44:38.673Z,10.26
2017-03-15T07:45:48.553Z,10.26
2017-03-15T07:46:57.257Z,10.26
2017-03-15T07:48:07.145Z,10.2
2017-03-15T07:49:16.153Z,10.26
2017-03-15T07:50:25.461Z,10.17
2017-03-15T07:51:34.791Z,10.26
2017-03-15T07:52:44.058Z,10.17
2017-03-15T07:53:53.627Z,10.29
2017-03-15T07:55:03.207Z,10.25
2017-03-15T07:56:12.533Z,10.25
2017-03-15T07:57:22.003Z,10.33
2017-03-15T07:58:30.683Z,10.27
2017-03-15T07:59:39.947Z,10.36
2017-03-15T08:00:49.297Z,10.32
2017-03-15T08:01:58.331Z,10.51
2017-03-15T08:03:07.898Z,10.59
2017-03-15T08:04:17.769Z,10.68
2017-03-15T08:05:27.032Z,10.71
2017-03-15T08:06:36.330Z,10.68
2017-03-15T08:07:45.616Z,10.82
2017-03-15T08:08:55.445Z,10.88
2017-03-15T08:10:04.715Z,10.92
2017-03-15T08:11:13.702Z,10.94
2017-03-15T08:12:23.284Z,10.91
2017-03-15T08:13:32.580Z,10.79
2017-03-15T08:14:41.308Z,10.64
2017-03-15T08:15:50.909Z,10.82
2017-03-15T08:17:00.529Z,10.92
2017-03-15T08:18:09.815Z,10.94
2017-03-15T08:19:19.383Z,10.94
2017-03-15T08:20:28.881Z,10.92
2017-03-15T08:21:38.154Z,10.92
2017-03-15T08:22:46.812Z,11.04
2017-03-15T08:23:55.792Z,11.04
2017-03-15T08:25:05.361Z,11.07
2017-03-15T08:26:15.001Z,11.04
2017-03-15T08:27:25.164Z,11.17
2017-03-15T08:28:34.129Z,11.28
2017-03-15T08:29:43.099Z,11.37
2017-03-15T08:30:52.971Z,11.43
2017-03-15T08:32:02.230Z,11.57
2017-03-15T08:33:11.194Z,11.62
2017-03-15T08:34:20.167Z,11.72
2017-03-15T08:35:29.137Z,11.78
2017-03-15T08:36:38.096Z,11.8
2017-03-15T08:37:47.061Z,11.82
2017-03-15T08:38:56.323Z,11.8
2017-03-15T08:40:04.985Z,11.76
2017-03-15T08:41:14.239Z,11.7
2017-03-15T08:42:23.798Z,11.75
2017-03-15T08:43:32.763Z,11.85
2017-03-15T08:44:42.029Z,11.95
2017-03-15T08:45:50.989Z,12.1
2017-03-15T08:46:59.661Z,12.17
2017-03-15T08:48:08.628Z,12.17
2017-03-15T08:49:17.589Z,12.23
2017-03-15T08:50:26.860Z,12.37
2017-03-15T08:51:36.127Z,12.47
2017-03-15T08:52:45.691Z,12.54
2017-03-15T08:53:54.353Z,12.5
2017-03-15T08:55:03.870Z,12.5
2017-03-15T08:56:13.141Z,12.6
2017-03-15T08:57:22.407Z,12.67
2017-03-15T08:58:31.373Z,12.59
2017-03-15T08:59:40.639Z,12.45
2017-03-15T09:00:49.605Z,12.62
2017-03-15T09:01:58.888Z,12.68
2017-03-15T09:03:07.886Z,12.62
2017-03-15T09:04:16.549Z,12.53
2017-03-15T09:05:25.852Z,12.47
2017-03-15T09:06:35.136Z,12.5
2017-03-15T09:07:44.111Z,12.49
2017-03-15T09:08:53.086Z,12.45
2017-03-15T09:10:01.749Z,12.34
2017-03-15T09:11:10.773Z,12.19
2017-03-15T09:12:19.826Z,12.41
2017-03-15T09:13:28.789Z,12.38
2017-03-15T09:14:37.756Z,12.49
2017-03-15T09:15:46.822Z,12.49
2017-03-15T09:16:55.783Z,12.42
2017-03-15T09:18:04.717Z,12.32
2017-03-15T09:19:14.014Z,12.37
2017-03-15T09:20:23.313Z,12.19
2017-03-15T09:21:32.610Z,12.14
2017-03-15T09:22:41.882Z,12.13
2017-03-15T09:23:51.162Z,11.99
2017-03-15T09:25:00.430Z,11.99
2017-03-15T09:26:09.459Z,11.94
2017-03-15T09:27:18.125Z,11.96
2017-03-15T09:28:27.115Z,11.85
2017-03-15T09:29:36.982Z,11.88
2017-03-15T09:30:45.994Z,11.88
2017-03-15T09:31:54.973Z,11.91
2017-03-15T09:33:03.958Z,11.95
2017-03-15T09:34:13.568Z,12.07
2017-03-15T09:35:23.497Z,12.35
2017-03-15T09:36:32.770Z,12.41
2017-03-15T09:37:41.743Z,12.53
2017-03-15T09:38:50.422Z,12.67
2017-03-15T09:39:59.709Z,12.68
2017-03-15T09:41:08.642Z,12.62
2017-03-15T09:42:17.620Z,12.71
2017-03-15T09:43:26.883Z,12.85
2017-03-15T09:44:36.149Z,12.86
2017-03-15T09:45:45.432Z,13.03
2017-03-15T09:46:54.410Z,12.95
2017-03-15T09:48:03.986Z,13.03
2017-03-15T09:49:13.276Z,12.95
2017-03-15T09:50:22.841Z,13.05
2017-03-15T09:51:31.878Z,13.11
2017-03-15T09:52:40.549Z,13.07
2017-03-15T09:53:49.531Z,12.93
2017-03-15T09:54:58.532Z,12.85
2017-03-15T09:56:07.192Z,12.97
2017-03-15T09:57:15.861Z,13.22
2017-03-15T09:58:24.548Z,13.38
2017-03-15T09:59:33.810Z,13.41
2017-03-15T10:00:43.133Z,13.55
2017-03-15T10:01:52.162Z,13.66
2017-03-15T10:03:01.144Z,13.69
2017-03-15T10:04:10.662Z,13.79
2017-03-15T10:05:19.629Z,13.92
2017-03-15T10:06:28.630Z,14.03
2017-03-15T10:07:37.321Z,14.27
2017-03-15T10:08:46.452Z,14.43
2017-03-15T10:09:55.394Z,14.46
2017-03-15T10:11:05.028Z,14.47
2017-03-15T10:12:13.698Z,14.55
2017-03-15T10:13:22.673Z,14.36
2017-03-15T10:14:31.702Z,14.46
2017-03-15T10:15:40.368Z,14.5
2017-03-15T10:16:49.391Z,14.61
2017-03-15T10:17:58.056Z,14.78
2017-03-15T10:19:06.723Z,14.86
2017-03-15T10:20:15.719Z,14.81
2017-03-15T10:21:24.388Z,14.7
2017-03-15T10:22:33.363Z,14.73
2017-03-15T10:23:42.034Z,14.57
2017-03-15T10:24:50.697Z,14.72
2017-03-15T10:25:59.668Z,14.81
2017-03-15T10:27:08.934Z,15.03
2017-03-15T10:28:18.497Z,15.35
2017-03-15T10:29:27.775Z,15.43
2017-03-15T10:30:37.050Z,15.67
2017-03-15T10:31:45.740Z,15.57
2017-03-15T10:32:54.412Z,15.5
2017-03-15T10:34:03.074Z,15.5
2017-03-15T10:35:11.740Z,15.87
2017-03-15T10:36:20.718Z,16
2017-03-15T10:37:29.384Z,15.92
2017-03-15T10:38:38.343Z,15.62
2017-03-15T10:39:47.567Z,15.57
2017-03-15T10:40:56.524Z,15.36
2017-03-15T10:42:05.487Z,15.1
2017-03-15T10:43:14.453Z,14.88
2017-03-15T10:44:24.272Z,14.8
2017-03-15T10:45:33.849Z,14.42
2017-03-15T10:46:43.118Z,14.15
2017-03-15T10:47:51.805Z,14.04
2017-03-15T10:49:00.768Z,13.91
2017-03-15T10:50:09.434Z,13.87
2017-03-15T10:51:18.696Z,14
2017-03-15T10:52:27.969Z,14.03
2017-03-15T10:53:37.233Z,14.4
2017-03-15T10:54:45.907Z,14.55
2017-03-15T10:55:55.476Z,14.62
2017-03-15T10:57:05.046Z,14.45
2017-03-15T10:58:13.716Z,14.42
2017-03-15T10:59:22.680Z,14.54
2017-03-15T11:00:31.949Z,14.62
2017-03-15T11:01:40.921Z,14.64
2017-03-15T11:02:50.182Z,14.47
2017-03-15T11:03:59.744Z,14.22
2017-03-15T11:05:08.408Z,14.39
2017-03-15T11:06:17.082Z,14.46
2017-03-15T11:07:26.600Z,14.32
2017-03-15T11:08:35.268Z,14.27
2017-03-15T11:09:43.933Z,14.07
2017-03-15T11:10:52.607Z,14.07
2017-03-15T11:12:01.450Z,14.2
2017-03-15T11:13:10.120Z,14.15
2017-03-15T11:14:19.079Z,14.02
2017-03-15T11:15:27.750Z,14.17
2017-03-15T11:16:36.716Z,14.29
2017-03-15T11:17:45.381Z,14.54
2017-03-15T11:18:54.342Z,14.58
2017-03-15T11:20:03.304Z,14.7
2017-03-15T11:21:12.274Z,14.83
2017-03-15T11:22:21.539Z,14.95
2017-03-15T11:23:30.496Z,15.1
2017-03-15T11:24:39.710Z,15.02
2017-03-15T11:25:48.370Z,14.89
2017-03-15T11:26:57.630Z,14.89
2017-03-15T11:28:06.596Z,14.65
2017-03-15T11:29:16.195Z,14.64
2017-03-15T11:30:25.465Z,14.45
2017-03-15T11:31:34.443Z,14.43
2017-03-15T11:32:43.706Z,14.54
2017-03-15T11:33:52.673Z,14.5
2017-03-15T11:35:01.651Z,14.46
2017-03-15T11:36:10.875Z,14.22
2017-03-15T11:37:19.847Z,14.25
2017-03-15T11:38:29.438Z,14.21
2017-03-15T11:39:38.704Z,14.22
2017-03-15T11:40:47.367Z,14.22
2017-03-15T11:41:56.344Z,14.18
2017-03-15T11:43:05.619Z,14.24
2017-03-15T11:44:14.881Z,14.18
2017-03-15T11:45:23.861Z,14.2
2017-03-15T11:46:32.823Z,14.24
2017-03-15T11:47:41.788Z,14.2
2017-03-15T11:48:50.457Z,14.04
2017-03-15T11:49:59.423Z,14.07
2017-03-15T11:51:08.387Z,14.27
2017-03-15T11:52:18.202Z,14.36
2017-03-15T11:53:27.162Z,14.58
2017-03-15T11:54:36.126Z,14.58
2017-03-15T11:55:44.793Z,14.52
2017-03-15T11:56:53.759Z,14.43
2017-03-15T11:58:02.725Z,14.33
2017-03-15T11:59:11.685Z,14.27
2017-03-15T12:00:20.352Z,14.27
2017-03-15T12:01:29.024Z,14.25
2017-03-15T12:02:38.597Z,14.25
2017-03-15T12:03:47.799Z,14.2
2017-03-15T12:04:57.059Z,14.32
2017-03-15T12:06:06.025Z,14.35
2017-03-15T12:07:15.589Z,14.32
2017-03-15T12:08:24.859Z,14.18
2017-03-15T12:09:33.522Z,14.21
2017-03-15T12:10:42.492Z,14.24
2017-03-15T12:11:51.153Z,14.04
2017-03-15T12:12:59.815Z,14.04
2017-03-15T12:14:08.484Z,14.14
2017-03-15T12:15:17.396Z,14
2017-03-15T12:16:26.355Z,14.03
2017-03-15T12:17:35.017Z,14.07
2017-03-15T12:18:43.677Z,14.18
2017-03-15T12:19:52.649Z,14.25
2017-03-15T12:21:01.309Z,14.33
2017-03-15T12:22:09.972Z,14.28
2017-03-15T12:23:18.636Z,14.25
2017-03-15T12:24:27.297Z,14.02
2017-03-15T12:25:35.968Z,14
2017-03-15T12:26:44.931Z,14.15
2017-03-15T12:27:53.890Z,14.18
2017-03-15T12:29:02.556Z,14.17
2017-03-15T12:30:11.515Z,14.24
2017-03-15T12:31:20.177Z,14.37
2017-03-15T12:32:29.136Z,14.4
2017-03-15T12:33:38.094Z,14.51
2017-03-15T12:34:47.053Z,14.6
2017-03-15T12:35:56.013Z,14.73
2017-03-15T12:37:04.671Z,14.86
2017-03-15T12:38:13.642Z,14.88
2017-03-15T12:39:22.645Z,14.98
2017-03-15T12:40:31.958Z,15.06
2017-03-15T12:41:40.617Z,14.99
2017-03-15T12:42:49.279Z,15.09
2017-03-15T12:43:57.962Z,15.07
2017-03-15T12:45:06.623Z,15.1
2017-03-15T12:46:15.289Z,15.01
2017-03-15T12:47:23.994Z,14.99
2017-03-15T12:48:32.665Z,14.91
2017-03-15T12:49:41.626Z,14.95
2017-03-15T12:50:50.293Z,15.11
2017-03-15T12:51:58.954Z,15.19
2017-03-15T12:53:07.616Z,15.25
2017-03-15T12:54:16.280Z,15.14
2017-03-15T12:55:24.939Z,15.23
2017-03-15T12:56:34.350Z,15.11
2017-03-15T12:57:43.425Z,15.06
2017-03-15T12:58:52.931Z,14.98
2017-03-15T13:00:02.152Z,14.98
2017-03-15T13:01:11.761Z,14.88
2017-03-15T13:02:20.663Z,14.86
2017-03-15T13:03:29.924Z,14.77
2017-03-15T13:04:38.884Z,14.73
2017-03-15T13:05:47.545Z,14.64
2017-03-15T13:06:56.213Z,14.73
2017-03-15T13:08:04.871Z,14.75
2017-03-15T13:09:13.531Z,14.83
2017-03-15T13:10:22.789Z,14.84
2017-03-15T13:11:31.459Z,14.86
2017-03-15T13:12:40.671Z,14.8
2017-03-15T13:13:49.626Z,14.84
2017-03-15T13:14:58.288Z,14.81
2017-03-15T13:16:06.947Z,14.83
2017-03-15T13:17:15.604Z,14.91
2017-03-15T13:18:24.570Z,14.83
2017-03-15T13:19:33.529Z,14.61
2017-03-15T13:20:42.495Z,14.61
2017-03-15T13:21:51.153Z,14.6
2017-03-15T13:22:59.813Z,14.69
2017-03-15T13:24:08.717Z,14.72
2017-03-15T13:25:17.378Z,14.8
2017-03-15T13:26:26.044Z,14.78
2017-03-15T13:27:35.007Z,15.02
2017-03-15T13:28:43.668Z,14.99
2017-03-15T13:29:52.929Z,15.09
2017-03-15T13:31:01.587Z,15.1
2017-03-15T13:32:10.546Z,15.01
2017-03-15T13:33:19.208Z,15.03
2017-03-15T13:34:28.176Z,15.09
2017-03-15T13:35:37.319Z,14.94
2017-03-15T13:36:46.419Z,15.03
2017-03-15T13:37:55.083Z,15.01
2017-03-15T13:39:04.205Z,15.07
2017-03-15T13:40:13.461Z,15.19
2017-03-15T13:41:22.126Z,15.25
2017-03-15T13:42:30.900Z,15.11
2017-03-15T13:43:40.413Z,15.09
2017-03-15T13:44:49.070Z,15.29
2017-03-15T13:45:57.731Z,15.29
2017-03-15T13:47:06.935Z,15.21
2017-03-15T13:48:16.192Z,15.14
2017-03-15T13:49:24.853Z,15.36
2017-03-15T13:50:33.515Z,15.35
2017-03-15T13:51:42.172Z,15.27
2017-03-15T13:52:50.931Z,15.25
2017-03-15T13:53:59.588Z,15.21
2017-03-15T13:55:08.246Z,15.38
2017-03-15T13:56:17.206Z,15.51
2017-03-15T13:57:25.871Z,15.47
2017-03-15T13:58:34.783Z,15.57
2017-03-15T13:59:43.742Z,15.68
2017-03-15T14:00:53.043Z,15.53
2017-03-15T14:02:02.007Z,15.57
2017-03-15T14:03:10.671Z,15.57
2017-03-15T14:04:19.329Z,15.6
2017-03-15T14:05:27.990Z,15.59
2017-03-15T14:06:36.953Z,15.67
2017-03-15T14:07:45.966Z,15.57
2017-03-15T14:08:54.931Z,15.67
2017-03-15T14:10:03.842Z,15.67
2017-03-15T14:11:12.802Z,15.65
2017-03-15T14:12:21.465Z,15.65
2017-03-15T14:13:30.725Z,15.76
2017-03-15T14:14:39.386Z,15.94
2017-03-15T14:15:48.046Z,15.96
2017-03-15T14:16:57.602Z,15.97
2017-03-15T14:18:06.557Z,15.92
2017-03-15T14:19:15.810Z,15.86
2017-03-15T14:20:24.472Z,15.87
2017-03-15T14:21:33.378Z,15.87
2017-03-15T14:22:42.040Z,15.82
2017-03-15T14:23:51.305Z,15.75
2017-03-15T14:25:00.266Z,15.6
2017-03-15T14:26:08.931Z,15.62
2017-03-15T14:27:17.889Z,15.74
2017-03-15T14:28:26.849Z,15.97
2017-03-15T14:29:36.111Z,16.2
2017-03-15T14:30:44.772Z,16.38
2017-03-15T14:31:53.430Z,16.45
2017-03-15T14:33:02.645Z,16.27
2017-03-15T14:34:11.310Z,16.34
2017-03-15T14:35:20.282Z,16.33
2017-03-15T14:36:28.942Z,16.23
2017-03-15T14:37:38.797Z,16.09
2017-03-15T14:38:47.758Z,15.97
2017-03-15T14:39:56.420Z,15.87
2017-03-15T14:41:05.376Z,15.86
2017-03-15T14:42:14.037Z,15.94
2017-03-15T14:43:22.698Z,16
2017-03-15T14:44:31.906Z,16.02
2017-03-15T14:45:40.565Z,16.09
2017-03-15T14:46:49.227Z,16.11
2017-03-15T14:47:57.889Z,16.14
2017-03-15T14:49:06.858Z,16.04
2017-03-15T14:50:16.118Z,15.82
2017-03-15T14:51:24.781Z,15.93
2017-03-15T14:52:33.744Z,16.01
2017-03-15T14:53:43.006Z,16.27
2017-03-15T14:54:51.664Z,16.43
2017-03-15T14:56:00.589Z,16.6
2017-03-15T14:57:09.559Z,16.53
2017-03-15T14:58:18.526Z,16.24
2017-03-15T14:59:27.489Z,16.01
2017-03-15T15:00:36.146Z,15.96
2017-03-15T15:01:45.104Z,15.93
2017-03-15T15:02:53.766Z,16.07
2017-03-15T15:04:02.427Z,16.02
2017-03-15T15:05:11.094Z,16.11
2017-03-15T15:06:19.751Z,16.07
2017-03-15T15:07:28.661Z,16.09
2017-03-15T15:08:37.319Z,16.09